Track Державина Анна

Time Latitude Longitude Accuracy (66% radius in meters) Altitude (meters) Speed (km/hour) Bearing (degrees) Battery (%) GPS flag
09:58:04 44.566926 38.175716 4 68.882818580563 0 59.627246856689 89 1 delete
09:57:52 44.566926 38.175716 12 68.807650568108 0 59.627246856689 89 1 delete
09:57:40 44.566926 38.175716 8 68.569051745284 0 59.627246856689 89 1 delete
09:57:28 44.566926 38.175716 8 68.550296761887 0 59.627246856689 89 1 delete
09:57:16 44.566926 38.175716 16 68.711988650897 0 59.627246856689 89 1 delete
09:57:04 44.566926 38.175716 12 68.722316674017 0 59.627246856689 89 1 delete
09:56:52 44.566926 38.175716 12 68.990121464657 0 59.627246856689 89 1 delete
09:56:40 44.566926 38.175716 8 69.219209990355 0 59.627246856689 89 1 delete
09:56:25 44.566926 38.175716 6 69.509842916705 0 59.627246856689 89 1 delete
09:56:13 44.566926 38.175716 8 69.615112376555 0 59.627246856689 89 1 delete
09:56:01 44.566926 38.175716 4 69.674908666106 0 59.627246856689 89 1 delete
09:55:49 44.566926 38.175716 4 69.552571321824 0 59.627246856689 89 1 delete
09:55:40 44.566926 38.175716 8 69.513203740468 0 59.627246856689 89 1 delete
09:55:25 44.566926 38.175716 4 69.391523570793 0 59.627246856689 89 1 delete
09:55:13 44.566926 38.175716 4 69.164781248892 0 59.627246856689 89 1 delete
09:55:01 44.566926 38.175716 4 69.162180037418 0 59.627246856689 89 1 delete
09:54:49 44.566926 38.175716 6 69.235214021766 0 59.627246856689 89 1 delete
09:54:37 44.566926 38.175716 6 69.320704666812 0 59.627246856689 89 1 delete
09:54:25 44.566926 38.175716 8 69.30701278515 0 59.627246856689 89 1 delete
09:54:13 44.566926 38.175716 6 69.31199980164 0 59.627246856689 89 1 delete
09:53:58 44.566926 38.175716 6 69.349235777617 0 59.627246856689 89 1 delete
09:53:46 44.566926 38.175716 6 69.381096482415 0 59.627246856689 89 1 delete
09:53:34 44.566926 38.175716 6 69.494599848133 0 59.627246856689 89 1 delete
09:53:19 44.566926 38.175716 6 69.594450858062 0 59.627246856689 89 1 delete
09:53:04 44.566926 38.175716 6 69.541269728441 0 59.627246856689 89 1 delete
09:52:55 44.566926 38.175716 4 69.531701528446 0 59.627246856689 89 1 delete
09:52:40 44.566926 38.175716 8 69.753048682891 0 59.627246856689 89 1 delete
09:52:31 44.566926 38.175716 12 69.960469559522 0 59.627246856689 89 1 delete
09:52:19 44.566926 38.175716 8 70.316965904231 0 59.627246856689 89 1 delete
09:52:07 44.566926 38.175716 8 70.547358207183 0 59.627246856689 89 1 delete
09:51:55 44.566926 38.175716 12 70.733134818623 0 59.627246856689 89 1 delete
09:51:46 44.566926 38.175716 8 70.887894956437 0 59.627246856689 89 1 delete
09:51:34 44.566926 38.175716 8 70.92480904746 0 59.627246856689 89 1 delete
09:51:22 44.566926 38.175716 6 70.426394014238 0 59.627246856689 89 1 delete
09:51:10 44.566926 38.175716 8 70.172018870355 0 59.627246856689 89 1 delete
09:50:58 44.566926 38.175716 8 69.762432890707 0 59.627246856689 89 1 delete
09:50:49 44.566926 38.175716 12 69.649161603759 0 59.627246856689 89 1 delete
09:50:37 44.566926 38.175716 6 69.393267548683 0 59.627246856689 89 1 delete
09:50:25 44.566926 38.175716 8 69.298200757901 0 59.627246856689 89 1 delete
09:50:13 44.566926 38.175716 16 69.23779774315 0 59.627246856689 89 1 delete
09:50:01 44.566926 38.175716 8 69.125946357776 0.0018320406088606 59.627246856689 89 1 delete
09:49:49 44.566926 38.175716 12 68.655221725282 0 59.627246856689 89 1 delete
09:49:40 44.566926 38.175716 8 68.550352486269 0 59.627246856689 89 1 delete
09:49:25 44.566926 38.175716 8 68.204994821889 0 59.627246856689 89 1 delete
09:49:13 44.566926 38.175716 8 68.070667323814 0 59.627246856689 89 1 delete
09:49:04 44.566926 38.175716 8 68.019795416777 0 59.627246856689 89 1 delete
09:48:52 44.566922 38.175711 12 68.26843819137 0 59.627246856689 89 1 delete
09:48:49 44.566918 38.175686 16 68.678091916923 2.149519443512 65.203674316406 89 1 delete
09:48:43 44.566904 38.175598 8 69.194464016307 2.6700747013092 84.948333740234 89 1 delete
09:48:40 44.566882 38.175521 12 69.23508498199 2.6875016689301 55.281383514404 89 1 delete